createdAt,value
2024-04-10T00:03:28.358Z,7.94
2024-04-10T00:07:30.022Z,7.77
2024-04-10T00:11:31.556Z,7.90
2024-04-10T00:15:33.139Z,7.98
2024-04-10T00:19:34.610Z,7.87
2024-04-10T00:23:36.141Z,7.88
2024-04-10T00:27:37.742Z,8.00
2024-04-10T00:31:39.221Z,8.20
2024-04-10T00:35:40.837Z,8.05
2024-04-10T00:39:42.348Z,7.84
2024-04-10T00:43:43.896Z,7.67
2024-04-10T00:47:45.663Z,7.73
2024-04-10T00:51:47.330Z,7.99
2024-04-10T00:55:49.202Z,7.64
2024-04-10T00:59:50.699Z,7.60
2024-04-10T01:03:52.391Z,7.50
2024-04-10T01:07:53.964Z,7.57
2024-04-10T01:11:55.637Z,7.86
2024-04-10T01:15:57.471Z,7.78
2024-04-10T01:19:59.085Z,7.35
2024-04-10T01:24:00.622Z,7.89
2024-04-10T01:28:02.129Z,8.01
2024-04-10T01:32:03.767Z,8.00
2024-04-10T01:36:05.486Z,8.05
2024-04-10T01:40:07.539Z,7.98
2024-04-10T01:44:09.274Z,8.03
2024-04-10T01:48:13.888Z,7.91
2024-04-10T01:52:15.547Z,7.47
2024-04-10T01:56:17.136Z,7.80
2024-04-10T02:00:18.725Z,7.86
2024-04-10T02:04:20.304Z,7.91
2024-04-10T02:08:21.867Z,8.11
2024-04-10T02:12:23.383Z,8.14
2024-04-10T02:16:25.342Z,8.18
2024-04-10T02:20:26.896Z,8.09
2024-04-10T02:24:28.358Z,7.87
2024-04-10T02:28:29.812Z,7.87
2024-04-10T02:32:31.509Z,7.72
2024-04-10T02:36:33.511Z,8.03
2024-04-10T02:40:34.981Z,8.18
2024-04-10T02:44:36.534Z,8.23
2024-04-10T02:48:38.053Z,7.97
2024-04-10T02:52:39.504Z,7.60
2024-04-10T02:56:41.072Z,8.09
2024-04-10T03:00:52.413Z,7.82
2024-04-10T03:04:53.968Z,7.70
2024-04-10T03:08:55.467Z,7.46
2024-04-10T03:12:56.939Z,7.58
2024-04-10T03:16:58.515Z,7.42
2024-04-10T03:21:00.112Z,7.39
2024-04-10T03:25:01.600Z,7.21
2024-04-10T03:29:03.105Z,7.46
2024-04-10T03:33:05.017Z,7.46
2024-04-10T03:37:06.610Z,7.87
2024-04-10T03:41:08.228Z,7.94
2024-04-10T03:45:09.882Z,8.01
2024-04-10T03:49:11.379Z,7.90
2024-04-10T03:53:12.944Z,8.05
2024-04-10T03:57:14.481Z,8.07
2024-04-10T04:01:16.031Z,7.75
2024-04-10T04:05:17.514Z,7.51
2024-04-10T04:09:19.107Z,7.49
2024-04-10T04:13:20.577Z,7.44
2024-04-10T04:17:22.109Z,7.08
2024-04-10T04:21:23.754Z,6.77
2024-04-10T04:25:25.280Z,6.61
2024-04-10T04:29:26.734Z,6.62
2024-04-10T04:33:28.455Z,6.75
2024-04-10T04:37:30.051Z,6.66
2024-04-10T04:41:31.614Z,6.82
2024-04-10T04:45:33.133Z,6.90
2024-04-10T04:49:34.637Z,6.63
2024-04-10T04:53:36.325Z,6.82
2024-04-10T04:57:37.905Z,6.94
2024-04-10T05:01:39.389Z,7.41
2024-04-10T05:05:40.875Z,7.57
2024-04-10T05:09:48.914Z,7.11
2024-04-10T05:13:50.428Z,7.14
2024-04-10T05:17:52.003Z,7.32
2024-04-10T05:21:53.563Z,7.40
2024-04-10T05:26:01.850Z,7.25
2024-04-10T05:30:06.051Z,7.22
2024-04-10T05:34:07.710Z,7.27
2024-04-10T05:38:09.249Z,7.35
2024-04-10T05:42:10.708Z,7.41
2024-04-10T05:46:12.175Z,7.60
2024-04-10T05:50:13.717Z,7.44
2024-04-10T05:54:15.191Z,7.58
2024-04-10T05:58:16.648Z,7.94
2024-04-10T06:02:18.433Z,8.31
2024-04-10T06:06:19.946Z,8.28
2024-04-10T06:10:21.471Z,7.91
2024-04-10T06:14:23.019Z,8.11
2024-04-10T06:18:24.573Z,8.31
2024-04-10T06:22:26.083Z,8.48
2024-04-10T06:26:27.733Z,8.49
2024-04-10T06:30:29.256Z,8.30
2024-04-10T06:34:30.821Z,8.63
2024-04-10T06:38:33.068Z,8.83
2024-04-10T06:42:34.671Z,8.91
2024-04-10T06:46:36.139Z,8.59
2024-04-10T06:50:37.971Z,8.13
2024-04-10T06:54:39.539Z,8.69
2024-04-10T06:58:40.990Z,8.72
2024-04-10T07:02:45.614Z,8.87
2024-04-10T07:06:47.204Z,8.60
2024-04-10T07:10:52.296Z,8.94
2024-04-10T07:14:53.848Z,8.85
2024-04-10T07:18:55.353Z,8.77
2024-04-10T07:22:56.872Z,8.95
2024-04-10T07:26:58.497Z,9.29
2024-04-10T07:30:59.994Z,9.35
2024-04-10T07:35:01.549Z,8.97
2024-04-10T07:39:04.389Z,8.93
2024-04-10T07:43:05.866Z,8.92
2024-04-10T07:47:07.541Z,9.35
2024-04-10T07:51:10.683Z,9.58
2024-04-10T07:55:12.082Z,9.34
2024-04-10T07:59:13.561Z,9.65
2024-04-10T08:03:15.168Z,9.77
2024-04-10T08:07:16.668Z,9.55
2024-04-10T08:11:18.227Z,9.61
2024-04-10T08:15:19.859Z,9.35
2024-04-10T08:19:21.372Z,9.40
2024-04-10T08:23:24.155Z,9.50
2024-04-10T08:27:25.763Z,9.35
2024-04-10T08:31:27.263Z,9.13
2024-04-10T08:35:28.785Z,9.37
2024-04-10T08:39:30.291Z,9.63
2024-04-10T08:43:36.951Z,9.38
2024-04-10T08:47:38.927Z,9.56
2024-04-10T08:51:41.027Z,9.53
2024-04-10T08:55:54.377Z,9.45
2024-04-10T09:00:01.340Z,9.17
2024-04-10T09:04:11.352Z,8.77
2024-04-10T09:08:13.238Z,9.34
2024-04-10T09:12:26.782Z,9.84
2024-04-10T09:16:28.349Z,10.20
2024-04-10T09:20:30.110Z,9.52
2024-04-10T09:24:31.686Z,9.78
2024-04-10T09:28:35.944Z,10.41
2024-04-10T09:32:37.804Z,10.21
2024-04-10T09:36:41.302Z,11.36
2024-04-10T09:40:50.383Z,11.16
2024-04-10T09:45:00.961Z,11.14
2024-04-10T09:49:27.008Z,10.87
2024-04-10T09:53:29.319Z,10.62
2024-04-10T09:57:31.489Z,10.27
2024-04-10T10:01:33.149Z,10.78
2024-04-10T10:05:35.680Z,11.12
2024-04-10T10:09:37.918Z,11.14
2024-04-10T10:13:39.380Z,11.07
2024-04-10T10:17:53.256Z,12.14
2024-04-10T10:22:02.474Z,11.45
2024-04-10T10:26:06.428Z,11.74
2024-04-10T10:30:08.630Z,11.42
2024-04-10T10:34:10.364Z,11.76
2024-04-10T10:38:12.214Z,11.56
2024-04-10T10:42:13.724Z,12.25
2024-04-10T10:46:15.491Z,12.06
2024-04-10T10:50:17.123Z,11.62
2024-04-10T10:54:18.937Z,11.28
2024-04-10T10:58:20.584Z,12.48
2024-04-10T11:02:22.208Z,12.52
2024-04-10T11:06:26.354Z,11.43
2024-04-10T11:10:28.244Z,12.10
2024-04-10T11:14:29.794Z,11.82
2024-04-10T11:18:31.459Z,12.19
2024-04-10T11:22:33.105Z,11.73
2024-04-10T11:26:34.703Z,11.38
2024-04-10T11:30:37.207Z,11.54
2024-04-10T11:34:38.897Z,11.78
2024-04-10T11:38:40.537Z,12.14
2024-04-10T11:42:42.169Z,11.75
2024-04-10T11:46:43.730Z,11.54
2024-04-10T11:50:45.367Z,12.25
2024-04-10T11:54:46.864Z,12.30
2024-04-10T11:58:48.347Z,12.78
2024-04-10T12:02:49.966Z,12.82
2024-04-10T12:06:51.560Z,12.25
2024-04-10T12:10:53.018Z,12.48
2024-04-10T12:14:54.607Z,12.18
2024-04-10T12:18:56.165Z,12.22
2024-04-10T12:22:57.660Z,12.23
2024-04-10T12:26:59.182Z,12.67
2024-04-10T12:31:02.771Z,13.26
2024-04-10T12:35:04.544Z,13.06
2024-04-10T12:39:06.130Z,12.42
2024-04-10T12:43:07.658Z,13.41
2024-04-10T12:47:09.178Z,13.27
2024-04-10T12:51:10.741Z,13.31
2024-04-10T12:55:12.269Z,14.13
2024-04-10T12:59:13.840Z,14.31
2024-04-10T13:03:15.478Z,13.53
2024-04-10T13:07:17.251Z,12.76
2024-04-10T13:11:19.206Z,12.15
2024-04-10T13:15:20.718Z,12.83
2024-04-10T13:19:22.221Z,12.86
2024-04-10T13:23:24.942Z,13.89
2024-04-10T13:27:26.434Z,13.50
2024-04-10T13:31:27.947Z,13.40
2024-04-10T13:35:29.552Z,13.11
2024-04-10T13:39:31.091Z,13.43
2024-04-10T13:43:36.373Z,13.62
2024-04-10T13:47:38.816Z,13.52
2024-04-10T13:51:40.518Z,13.84
2024-04-10T13:55:42.264Z,13.18
2024-04-10T13:59:43.767Z,13.24
2024-04-10T14:03:49.202Z,13.94
2024-04-10T14:07:51.014Z,14.05
2024-04-10T14:11:52.666Z,13.64
2024-04-10T14:15:55.235Z,14.06
2024-04-10T14:19:56.861Z,14.00
2024-04-10T14:23:59.818Z,13.83
2024-04-10T14:28:02.440Z,13.95
2024-04-10T14:32:04.232Z,14.02
2024-04-10T14:36:06.519Z,13.53
2024-04-10T14:40:09.018Z,13.37
2024-04-10T14:44:10.540Z,13.24
2024-04-10T14:48:12.862Z,13.37
2024-04-10T14:52:14.443Z,13.48
2024-04-10T14:56:16.415Z,13.16
2024-04-10T15:00:18.727Z,13.12
2024-04-10T15:04:20.435Z,13.50
2024-04-10T15:08:22.105Z,13.40
2024-04-10T15:12:23.697Z,13.42
2024-04-10T15:16:26.247Z,13.13
2024-04-10T15:20:27.856Z,13.15
2024-04-10T15:24:29.402Z,12.79
2024-04-10T15:28:31.127Z,12.81
2024-04-10T15:32:33.008Z,13.02
2024-04-10T15:36:34.583Z,13.09
2024-04-10T15:40:36.071Z,13.02
2024-04-10T15:44:37.558Z,12.63
2024-04-10T15:48:39.427Z,13.07
2024-04-10T15:52:50.338Z,12.78
2024-04-10T15:56:53.148Z,12.74
2024-04-10T16:01:02.048Z,12.58
2024-04-10T16:05:04.041Z,12.64
2024-04-10T16:09:05.672Z,12.41
2024-04-10T16:13:07.184Z,12.79
2024-04-10T16:17:08.879Z,12.97
2024-04-10T16:21:11.911Z,12.65
2024-04-10T16:25:13.420Z,12.68
2024-04-10T16:29:15.014Z,12.48
2024-04-10T16:33:16.899Z,12.16
2024-04-10T16:37:18.488Z,12.36
2024-04-10T16:41:20.060Z,12.35
2024-04-10T16:45:21.568Z,12.74
2024-04-10T16:49:23.531Z,12.45
2024-04-10T16:53:25.189Z,12.94
2024-04-10T16:57:26.719Z,12.82
2024-04-10T17:01:28.270Z,12.85
2024-04-10T17:05:29.988Z,12.41
2024-04-10T17:09:31.585Z,12.37
2024-04-10T17:13:33.124Z,12.11
2024-04-10T17:17:34.730Z,12.19
2024-04-10T17:21:36.928Z,11.83
2024-04-10T17:25:38.435Z,11.42
2024-04-10T17:29:39.992Z,11.10
2024-04-10T17:33:41.667Z,11.00
2024-04-10T17:37:43.353Z,10.80
2024-04-10T17:41:45.022Z,10.49
2024-04-10T17:45:46.734Z,10.02
2024-04-10T17:49:48.230Z,9.90
2024-04-10T17:53:49.776Z,9.60
2024-04-10T17:57:51.255Z,9.36
2024-04-10T18:01:52.812Z,8.99
2024-04-10T18:06:05.916Z,8.83
2024-04-10T18:10:07.814Z,8.76
2024-04-10T18:14:09.314Z,8.49
2024-04-10T18:18:10.974Z,8.17
2024-04-10T18:22:12.578Z,8.20
2024-04-10T18:26:14.036Z,8.13
2024-04-10T18:30:15.537Z,7.89
2024-04-10T18:34:17.323Z,7.83
2024-04-10T18:38:19.045Z,7.77
2024-04-10T18:43:39.149Z,7.56
2024-04-10T18:47:41.122Z,7.28
2024-04-10T18:51:42.719Z,7.28
2024-04-10T18:55:59.683Z,7.21
2024-04-10T19:00:01.400Z,7.01
2024-04-10T19:04:03.118Z,7.12
2024-04-10T19:08:05.250Z,6.85
2024-04-10T19:12:07.177Z,6.71
2024-04-10T19:16:08.756Z,6.46
2024-04-10T19:20:10.433Z,6.47
2024-04-10T19:24:11.959Z,6.34
2024-04-10T19:28:13.533Z,6.09
2024-04-10T19:32:15.032Z,6.19
2024-04-10T19:36:16.553Z,6.07
2024-04-10T19:40:18.057Z,5.97
2024-04-10T19:44:19.567Z,6.00
2024-04-10T19:48:24.694Z,5.87
2024-04-10T19:52:26.406Z,5.67
2024-04-10T19:56:27.886Z,5.54
2024-04-10T20:00:29.423Z,5.69
2024-04-10T20:04:30.963Z,5.71
2024-04-10T20:08:33.330Z,5.78
2024-04-10T20:12:35.557Z,5.65
2024-04-10T20:16:37.109Z,5.57
2024-04-10T20:20:39.434Z,5.56
2024-04-10T20:24:40.976Z,5.83
2024-04-10T20:28:42.654Z,5.46
2024-04-10T20:32:45.312Z,5.35
2024-04-10T20:36:46.852Z,5.27
2024-04-10T20:40:48.394Z,5.10
2024-04-10T20:44:50.519Z,5.17
2024-04-10T20:48:52.278Z,5.19
2024-04-10T20:52:53.929Z,5.04
2024-04-10T20:56:55.440Z,5.06
2024-04-10T21:01:04.993Z,5.08
2024-04-10T21:05:06.865Z,5.02
2024-04-10T21:09:08.679Z,4.90
2024-04-10T21:13:10.258Z,4.85
2024-04-10T21:17:11.824Z,4.76
2024-04-10T21:21:13.737Z,4.71
2024-04-10T21:25:20.553Z,4.74
2024-04-10T21:29:22.027Z,4.80
2024-04-10T21:33:25.719Z,4.54
2024-04-10T21:37:27.368Z,4.47
2024-04-10T21:41:30.303Z,4.57
2024-04-10T21:45:33.564Z,4.57
2024-04-10T21:49:35.287Z,4.43
2024-04-10T21:53:37.039Z,4.40
2024-04-10T21:57:38.575Z,4.39
2024-04-10T22:01:49.390Z,4.28
2024-04-10T22:06:01.769Z,4.26
2024-04-10T22:10:03.613Z,4.35
2024-04-10T22:14:05.872Z,4.37
2024-04-10T22:18:08.698Z,4.43
2024-04-10T22:22:10.655Z,4.38
2024-04-10T22:26:12.147Z,4.36
2024-04-10T22:30:13.806Z,4.28
2024-04-10T22:34:15.514Z,4.12
2024-04-10T22:38:17.192Z,4.15
2024-04-10T22:42:18.714Z,4.14
2024-04-10T22:46:20.338Z,4.05
2024-04-10T22:50:21.945Z,4.03
2024-04-10T22:54:23.488Z,4.03
2024-04-10T22:58:25.030Z,3.97
2024-04-10T23:02:26.770Z,3.80
2024-04-10T23:07:07.005Z,3.89
2024-04-10T23:10:50.306Z,3.86
2024-04-10T23:14:51.951Z,3.79
2024-04-10T23:19:09.037Z,3.75
2024-04-10T23:23:14.939Z,3.81
2024-04-10T23:27:16.415Z,3.68
2024-04-10T23:31:17.936Z,3.82
2024-04-10T23:35:19.494Z,3.68
2024-04-10T23:39:21.018Z,3.52
2024-04-10T23:43:22.504Z,3.38
2024-04-10T23:47:24.073Z,3.18
2024-04-10T23:51:25.647Z,3.20
2024-04-10T23:55:27.130Z,3.23
2024-04-10T23:59:28.650Z,2.98
